createdAt,value
2019-01-29T00:01:48.728Z,93.22
2019-01-29T00:04:19.800Z,92.83
2019-01-29T00:06:50.906Z,92.43
2019-01-29T00:09:21.676Z,92.88
2019-01-29T00:11:52.597Z,93.84
2019-01-29T00:14:23.434Z,95.16
2019-01-29T00:16:54.552Z,94.18
2019-01-29T00:19:25.576Z,93.15
2019-01-29T00:21:56.411Z,92.70
2019-01-29T00:24:27.942Z,93.00
2019-01-29T00:26:59.819Z,92.77
2019-01-29T00:29:30.685Z,92.01
2019-01-29T00:32:01.795Z,92.51
2019-01-29T00:34:32.893Z,92.16
2019-01-29T00:37:04.047Z,91.96
2019-01-29T00:39:34.871Z,91.65
2019-01-29T00:42:05.947Z,91.43
2019-01-29T00:44:37.030Z,91.43
2019-01-29T00:47:07.905Z,91.58
2019-01-29T00:49:39.085Z,92.32
2019-01-29T00:52:10.137Z,92.64
2019-01-29T00:54:41.047Z,92.21
2019-01-29T00:57:12.115Z,92.89
2019-01-29T00:59:43.109Z,92.49
2019-01-29T01:02:14.006Z,92.51
2019-01-29T01:04:45.101Z,93.00
2019-01-29T01:07:16.102Z,92.32
2019-01-29T01:09:47.164Z,93.54
2019-01-29T01:12:18.096Z,93.68
2019-01-29T01:14:49.159Z,93.74
2019-01-29T01:17:20.080Z,94.04
2019-01-29T01:19:51.168Z,94.48
2019-01-29T01:22:22.081Z,95.24
2019-01-29T01:24:52.927Z,95.22
2019-01-29T01:27:24.255Z,95.39
2019-01-29T01:29:55.084Z,96.50
2019-01-29T01:32:25.863Z,96.38
2019-01-29T01:34:56.718Z,97.07
2019-01-29T01:37:28.089Z,96.72
2019-01-29T01:39:58.868Z,97.54
2019-01-29T01:42:29.922Z,97.23
2019-01-29T01:45:01.214Z,96.38
2019-01-29T01:47:32.225Z,97.08
2019-01-29T01:50:03.191Z,97.29
2019-01-29T01:52:34.531Z,96.34
2019-01-29T01:55:06.789Z,95.70
2019-01-29T01:57:37.959Z,95.38
2019-01-29T02:00:14.082Z,95.48
2019-01-29T02:02:45.049Z,94.22
2019-01-29T02:05:16.031Z,95.00
2019-01-29T02:07:47.234Z,95.82
2019-01-29T02:10:26.913Z,95.62
2019-01-29T02:12:57.867Z,95.35
2019-01-29T02:15:28.820Z,95.40
2019-01-29T02:17:59.826Z,92.85
2019-01-29T02:20:30.923Z,92.77
2019-01-29T02:23:07.720Z,93.69
2019-01-29T02:25:34.559Z,94.26
2019-01-29T02:28:05.727Z,94.90
2019-01-29T02:30:37.783Z,94.75
2019-01-29T02:33:09.306Z,94.14
2019-01-29T02:35:40.247Z,93.42
2019-01-29T02:38:11.870Z,93.48
2019-01-29T02:40:43.277Z,94.00
2019-01-29T02:43:14.542Z,93.22
2019-01-29T02:45:45.596Z,93.15
2019-01-29T02:48:16.680Z,93.54
2019-01-29T02:50:48.124Z,93.92
2019-01-29T02:54:12.589Z,94.01
2019-01-29T03:00:11.190Z,92.78
2019-01-29T03:06:06.654Z,94.01
2019-01-29T03:08:37.763Z,93.44
2019-01-29T03:11:09.406Z,93.60
2019-01-29T03:16:29.233Z,93.34
2019-01-29T03:19:00.593Z,93.12
2019-01-29T03:21:31.969Z,93.57
2019-01-29T03:24:03.674Z,93.74
2019-01-29T03:26:35.162Z,94.50
2019-01-29T03:29:06.284Z,94.70
2019-01-29T03:31:37.821Z,94.96
2019-01-29T03:34:09.363Z,94.70
2019-01-29T03:36:40.325Z,94.19
2019-01-29T03:39:11.657Z,93.23
2019-01-29T03:41:45.823Z,93.62
2019-01-29T03:44:17.751Z,93.54
2019-01-29T03:46:48.986Z,92.94
2019-01-29T03:49:20.407Z,92.74
2019-01-29T03:51:51.477Z,92.40
2019-01-29T03:54:23.122Z,92.48
2019-01-29T03:56:54.545Z,92.23
2019-01-29T03:59:26.036Z,91.90
2019-01-29T04:01:57.144Z,91.85
2019-01-29T04:04:28.478Z,91.79
2019-01-29T04:06:59.616Z,91.28
2019-01-29T04:09:30.722Z,91.13
2019-01-29T04:12:01.887Z,91.25
2019-01-29T04:14:33.079Z,90.97
2019-01-29T04:17:04.219Z,90.89
2019-01-29T04:19:35.327Z,90.17
2019-01-29T04:22:06.320Z,89.58
2019-01-29T04:24:37.831Z,89.65
2019-01-29T04:27:09.022Z,90.14
2019-01-29T04:29:40.778Z,90.21
2019-01-29T04:32:12.147Z,90.50
2019-01-29T04:34:45.491Z,90.36
2019-01-29T04:37:16.628Z,90.37
2019-01-29T04:39:48.152Z,90.62
2019-01-29T04:42:19.454Z,90.98
2019-01-29T04:44:50.841Z,90.51
2019-01-29T04:47:22.953Z,90.53
2019-01-29T04:49:54.644Z,91.34
2019-01-29T04:52:25.961Z,90.74
2019-01-29T04:54:57.014Z,91.01
2019-01-29T04:57:28.046Z,89.58
2019-01-29T04:59:59.671Z,90.43
2019-01-29T05:02:30.815Z,90.22
2019-01-29T05:05:01.916Z,90.42
2019-01-29T05:07:33.320Z,90.42
2019-01-29T05:10:05.232Z,90.46
2019-01-29T05:12:36.477Z,90.62
2019-01-29T05:15:10.563Z,90.46
2019-01-29T05:17:41.857Z,90.06
2019-01-29T05:20:15.361Z,90.35
2019-01-29T05:22:46.503Z,90.07
2019-01-29T05:25:17.706Z,91.10
2019-01-29T05:27:50.130Z,90.64
2019-01-29T05:30:23.378Z,90.99
2019-01-29T05:32:54.734Z,91.29
2019-01-29T05:35:25.844Z,90.97
2019-01-29T05:37:57.048Z,90.52
2019-01-29T05:40:28.170Z,90.38
2019-01-29T05:42:59.204Z,90.04
2019-01-29T05:45:30.724Z,89.37
2019-01-29T05:48:02.073Z,89.61
2019-01-29T05:50:33.326Z,90.19
2019-01-29T05:53:04.695Z,89.02
2019-01-29T05:55:35.748Z,88.18
2019-01-29T05:58:07.272Z,88.24
2019-01-29T06:00:40.864Z,89.01
2019-01-29T06:03:11.953Z,89.15
2019-01-29T06:05:43.101Z,88.22
2019-01-29T06:08:14.137Z,88.83
2019-01-29T06:10:45.004Z,89.33
2019-01-29T06:13:15.983Z,88.06
2019-01-29T06:15:47.579Z,87.93
2019-01-29T06:18:18.827Z,88.84
2019-01-29T06:20:49.937Z,89.31
2019-01-29T06:23:21.004Z,89.37
2019-01-29T06:25:51.984Z,89.07
2019-01-29T06:28:23.192Z,88.98
2019-01-29T06:30:56.661Z,88.81
2019-01-29T06:33:26.659Z,90.11
2019-01-29T06:35:57.711Z,89.12
2019-01-29T06:38:28.557Z,89.21
2019-01-29T06:40:59.433Z,89.59
2019-01-29T06:43:30.332Z,89.29
2019-01-29T06:46:01.140Z,90.13
2019-01-29T06:48:32.004Z,90.14
2019-01-29T06:51:03.239Z,89.93
2019-01-29T06:53:34.433Z,89.73
2019-01-29T06:56:05.528Z,90.06
2019-01-29T06:58:36.719Z,90.50
2019-01-29T07:01:07.597Z,89.78
2019-01-29T07:03:38.422Z,90.79
2019-01-29T07:06:09.645Z,91.34
2019-01-29T07:08:40.547Z,91.25
2019-01-29T07:11:11.411Z,90.57
2019-01-29T07:13:42.420Z,91.42
2019-01-29T07:16:31.025Z,91.51
2019-01-29T07:19:05.761Z,92.94
2019-01-29T07:21:36.802Z,93.85
2019-01-29T07:24:07.860Z,94.07
2019-01-29T07:26:39.800Z,94.31
2019-01-29T07:29:10.994Z,92.74
2019-01-29T07:31:42.284Z,93.57
2019-01-29T07:34:13.540Z,93.74
2019-01-29T07:36:44.851Z,93.84
2019-01-29T07:39:16.025Z,91.33
2019-01-29T07:41:47.476Z,92.45
2019-01-29T07:44:18.348Z,90.87
2019-01-29T07:46:49.871Z,92.18
2019-01-29T07:49:20.768Z,90.90
2019-01-29T07:51:52.053Z,91.29
2019-01-29T07:54:23.360Z,89.48
2019-01-29T07:56:54.213Z,88.58
2019-01-29T07:59:32.439Z,88.66
2019-01-29T08:01:57.650Z,88.46
2019-01-29T08:04:28.699Z,88.81
2019-01-29T08:06:59.569Z,89.09
2019-01-29T08:09:30.677Z,88.05
2019-01-29T08:12:01.882Z,88.83
2019-01-29T08:14:33.181Z,88.97
2019-01-29T08:17:05.453Z,87.95
2019-01-29T08:19:36.672Z,88.17
2019-01-29T08:22:07.802Z,88.15
2019-01-29T08:24:39.194Z,88.52
2019-01-29T08:27:10.333Z,88.62
2019-01-29T08:29:41.406Z,88.75
2019-01-29T08:32:12.520Z,88.04
2019-01-29T08:34:43.558Z,88.83
2019-01-29T08:37:14.489Z,88.68
2019-01-29T08:39:45.699Z,88.86
2019-01-29T08:42:16.566Z,88.51
2019-01-29T08:44:47.424Z,88.72
2019-01-29T08:47:18.373Z,88.80
2019-01-29T08:49:49.151Z,87.86
2019-01-29T08:52:20.186Z,87.92
2019-01-29T08:54:50.961Z,87.82
2019-01-29T08:57:22.321Z,87.57
2019-01-29T08:59:53.641Z,88.17
2019-01-29T09:02:24.516Z,88.23
2019-01-29T09:04:56.260Z,88.16
2019-01-29T09:07:27.365Z,88.03
2019-01-29T09:09:58.435Z,86.54
2019-01-29T09:12:29.564Z,86.63
2019-01-29T09:15:00.968Z,88.44
2019-01-29T09:17:32.076Z,87.46
2019-01-29T09:20:03.309Z,87.19
2019-01-29T09:22:34.456Z,87.22
2019-01-29T09:25:06.416Z,87.29
2019-01-29T09:27:37.525Z,86.15
2019-01-29T09:30:11.188Z,86.04
2019-01-29T09:32:42.053Z,85.71
2019-01-29T09:35:13.054Z,85.94
2019-01-29T09:37:44.157Z,85.94
2019-01-29T09:40:16.990Z,85.55
2019-01-29T09:42:48.000Z,84.57
2019-01-29T09:45:19.937Z,86.64
2019-01-29T09:47:51.176Z,85.04
2019-01-29T09:50:23.124Z,85.32
2019-01-29T09:52:54.566Z,85.29
2019-01-29T09:55:29.564Z,85.95
2019-01-29T09:57:58.709Z,85.92
2019-01-29T10:00:31.695Z,85.42
2019-01-29T10:03:02.638Z,85.22
2019-01-29T10:05:34.086Z,85.22
2019-01-29T10:08:06.111Z,85.13
2019-01-29T10:10:36.950Z,84.95
2019-01-29T10:13:07.818Z,85.32
2019-01-29T10:15:38.747Z,86.17
2019-01-29T10:18:09.843Z,84.75
2019-01-29T10:20:40.746Z,84.68
2019-01-29T10:23:11.537Z,84.42
2019-01-29T10:25:43.349Z,84.29
2019-01-29T10:28:14.215Z,83.59
2019-01-29T10:30:45.289Z,83.65
2019-01-29T10:33:16.855Z,82.68
2019-01-29T10:35:47.832Z,83.12
2019-01-29T10:38:18.905Z,83.70
2019-01-29T10:40:49.984Z,83.21
2019-01-29T10:43:21.099Z,82.69
2019-01-29T10:45:52.017Z,82.48
2019-01-29T10:48:22.812Z,83.33
2019-01-29T10:50:53.759Z,82.95
2019-01-29T10:53:24.550Z,82.99
2019-01-29T10:55:55.800Z,81.72
2019-01-29T10:58:26.957Z,83.26
2019-01-29T11:00:57.891Z,83.47
2019-01-29T11:03:28.943Z,83.43
2019-01-29T11:06:00.020Z,82.05
2019-01-29T11:08:31.122Z,82.87
2019-01-29T11:11:02.195Z,83.13
2019-01-29T11:13:33.242Z,81.83
2019-01-29T11:16:04.423Z,82.50
2019-01-29T11:18:35.360Z,81.70
2019-01-29T11:21:06.287Z,81.08
2019-01-29T11:23:37.192Z,82.44
2019-01-29T11:26:08.406Z,82.30
2019-01-29T11:28:39.287Z,81.37
2019-01-29T11:31:10.295Z,81.29
2019-01-29T11:33:41.193Z,82.80
2019-01-29T11:36:11.989Z,82.54
2019-01-29T11:38:42.866Z,83.45
2019-01-29T11:41:14.301Z,81.74
2019-01-29T11:43:45.174Z,83.41
2019-01-29T11:46:16.086Z,80.62
2019-01-29T11:48:46.955Z,81.48
2019-01-29T11:51:17.815Z,80.93
2019-01-29T11:53:48.690Z,81.59
2019-01-29T11:56:19.945Z,82.63
2019-01-29T11:58:50.812Z,80.67
2019-01-29T12:01:24.317Z,81.01
2019-01-29T12:03:55.661Z,80.75
2019-01-29T12:06:26.512Z,80.11
2019-01-29T12:08:57.382Z,78.52
2019-01-29T12:11:28.456Z,77.99
2019-01-29T12:13:59.255Z,77.95
2019-01-29T12:16:30.270Z,76.31
2019-01-29T12:19:01.292Z,78.94
2019-01-29T12:21:32.718Z,77.71
2019-01-29T12:24:03.661Z,77.34
2019-01-29T12:26:34.647Z,76.03
2019-01-29T12:29:06.027Z,76.27
2019-01-29T12:31:37.376Z,77.89
2019-01-29T12:34:08.168Z,77.42
2019-01-29T12:36:39.014Z,76.63
2019-01-29T12:39:10.173Z,76.96
2019-01-29T12:41:41.144Z,74.15
2019-01-29T12:44:12.312Z,76.85
2019-01-29T12:46:43.151Z,77.17
2019-01-29T12:49:14.252Z,77.54
2019-01-29T12:52:06.922Z,76.55
2019-01-29T12:54:38.093Z,76.13
2019-01-29T12:57:09.190Z,75.65
2019-01-29T12:59:40.293Z,75.84
2019-01-29T13:02:11.324Z,76.83
2019-01-29T13:04:42.262Z,75.57
2019-01-29T13:07:13.175Z,75.26
2019-01-29T13:09:44.146Z,75.33
2019-01-29T13:12:15.192Z,76.35
2019-01-29T13:14:46.217Z,76.06
2019-01-29T13:17:17.089Z,76.58
2019-01-29T13:19:47.952Z,74.04
2019-01-29T13:22:18.798Z,76.70
2019-01-29T13:24:49.891Z,73.54
2019-01-29T13:27:20.916Z,72.75
2019-01-29T13:29:52.113Z,74.45
2019-01-29T13:32:23.117Z,74.95
2019-01-29T13:34:53.907Z,73.53
2019-01-29T13:37:24.780Z,71.60
2019-01-29T13:39:55.876Z,73.65
2019-01-29T13:42:26.718Z,72.29
2019-01-29T13:44:57.784Z,70.36
2019-01-29T13:47:28.620Z,70.97
2019-01-29T13:49:59.758Z,72.06
2019-01-29T13:52:30.800Z,71.78
2019-01-29T13:55:01.595Z,72.55
2019-01-29T13:57:32.511Z,72.79
2019-01-29T14:00:03.816Z,71.69
2019-01-29T14:02:34.777Z,71.03
2019-01-29T14:05:05.862Z,69.53
2019-01-29T14:07:36.775Z,67.94
2019-01-29T14:10:08.254Z,68.47
2019-01-29T14:12:39.396Z,69.32
2019-01-29T14:15:13.770Z,69.30
2019-01-29T14:17:47.211Z,68.06
2019-01-29T14:20:18.216Z,68.91
2019-01-29T14:22:49.628Z,69.77
2019-01-29T14:25:20.423Z,70.35
2019-01-29T14:27:51.560Z,71.96
2019-01-29T14:30:22.569Z,71.20
2019-01-29T14:32:53.744Z,71.77
2019-01-29T14:35:24.606Z,71.31
2019-01-29T14:38:49.343Z,68.40
2019-01-29T14:41:21.851Z,68.96
2019-01-29T14:43:58.013Z,70.00
2019-01-29T14:46:28.837Z,72.41
2019-01-29T14:48:59.915Z,73.40
2019-01-29T14:51:31.007Z,72.99
2019-01-29T14:54:02.210Z,71.08
2019-01-29T14:56:33.258Z,73.50
2019-01-29T14:59:04.246Z,72.51
2019-01-29T15:01:35.406Z,73.26
2019-01-29T15:04:06.272Z,72.76
2019-01-29T15:06:37.136Z,72.37
2019-01-29T15:09:10.735Z,74.05
2019-01-29T15:11:41.575Z,70.67
2019-01-29T15:14:13.317Z,71.30
2019-01-29T15:17:21.165Z,68.83
2019-01-29T15:19:52.421Z,71.23
2019-01-29T15:22:23.587Z,72.27
2019-01-29T15:24:54.357Z,70.08
2019-01-29T15:27:25.376Z,66.51
2019-01-29T15:29:56.210Z,69.00
2019-01-29T15:32:27.087Z,70.51
2019-01-29T15:34:58.263Z,71.28
2019-01-29T15:37:29.125Z,73.78
2019-01-29T15:39:59.893Z,73.88
2019-01-29T15:42:30.768Z,73.00
2019-01-29T15:45:01.548Z,75.42
2019-01-29T15:47:32.868Z,73.74
2019-01-29T15:50:04.429Z,73.89
2019-01-29T15:52:35.236Z,74.64
2019-01-29T15:55:07.796Z,75.93
2019-01-29T15:57:38.888Z,75.18
2019-01-29T16:00:14.172Z,75.08
2019-01-29T16:02:45.114Z,75.05
2019-01-29T16:05:18.641Z,76.23
2019-01-29T16:07:49.406Z,76.43
2019-01-29T16:10:23.250Z,77.05
2019-01-29T16:12:54.479Z,76.54
2019-01-29T16:15:25.745Z,78.08
2019-01-29T16:17:56.970Z,77.45
2019-01-29T16:20:27.830Z,77.98
2019-01-29T16:22:58.706Z,78.62
2019-01-29T16:25:29.676Z,79.78
2019-01-29T16:28:01.106Z,79.75
2019-01-29T16:30:32.240Z,80.50
2019-01-29T16:33:03.119Z,79.79
2019-01-29T16:35:34.175Z,80.87
2019-01-29T16:38:05.382Z,81.54
2019-01-29T16:40:36.939Z,82.18
2019-01-29T16:43:08.045Z,82.46
2019-01-29T16:45:39.486Z,83.00
2019-01-29T16:48:10.567Z,83.68
2019-01-29T16:50:42.068Z,83.63
2019-01-29T16:53:12.958Z,83.37
2019-01-29T16:55:43.817Z,84.20
2019-01-29T16:58:14.934Z,85.04
2019-01-29T17:00:45.886Z,85.29
2019-01-29T17:03:17.058Z,85.10
2019-01-29T17:05:48.161Z,86.18
2019-01-29T17:08:19.352Z,86.12
2019-01-29T17:10:50.458Z,86.67
2019-01-29T17:13:21.702Z,86.34
2019-01-29T17:15:52.579Z,87.10
2019-01-29T17:18:23.452Z,87.56
2019-01-29T17:20:54.554Z,88.18
2019-01-29T17:23:25.429Z,88.77
2019-01-29T17:25:56.356Z,88.75
2019-01-29T17:28:27.225Z,89.41
2019-01-29T17:30:59.610Z,90.05
2019-01-29T17:33:30.893Z,90.48
2019-01-29T17:36:02.108Z,90.38
2019-01-29T17:38:32.917Z,90.39
2019-01-29T17:41:03.709Z,90.76
2019-01-29T17:43:34.808Z,90.87
2019-01-29T17:46:05.689Z,90.83
2019-01-29T17:48:36.500Z,90.85
2019-01-29T17:51:07.363Z,90.70
2019-01-29T17:53:38.473Z,90.61
2019-01-29T17:56:09.328Z,90.61
2019-01-29T17:58:40.556Z,90.32
2019-01-29T18:01:12.542Z,90.30
2019-01-29T18:03:43.631Z,90.40
2019-01-29T18:06:14.501Z,90.41
2019-01-29T18:08:49.799Z,90.44
2019-01-29T18:11:18.211Z,90.57
2019-01-29T18:13:49.487Z,91.44
2019-01-29T18:16:20.434Z,91.37
2019-01-29T18:18:51.543Z,91.03
2019-01-29T18:21:22.631Z,91.71
2019-01-29T18:23:53.648Z,91.74
2019-01-29T18:26:24.772Z,91.72
2019-01-29T18:28:55.973Z,91.98
2019-01-29T18:31:27.183Z,91.80
2019-01-29T18:33:58.047Z,92.37
2019-01-29T18:36:28.842Z,92.16
2019-01-29T18:38:59.690Z,92.19
2019-01-29T18:41:30.749Z,92.18
2019-01-29T18:44:01.794Z,92.51
2019-01-29T18:46:32.896Z,92.21
2019-01-29T18:49:04.080Z,92.36
2019-01-29T18:51:35.368Z,92.58
2019-01-29T18:54:07.820Z,92.08
2019-01-29T18:56:38.905Z,92.54
2019-01-29T18:59:10.006Z,92.58
2019-01-29T19:01:41.072Z,92.32
2019-01-29T19:04:12.016Z,92.36
2019-01-29T19:06:42.865Z,92.03
2019-01-29T19:09:13.740Z,92.00
2019-01-29T19:11:44.831Z,91.77
2019-01-29T19:14:15.926Z,91.81
2019-01-29T19:16:46.883Z,92.02
2019-01-29T19:19:17.985Z,91.64
2019-01-29T19:21:49.163Z,91.79
2019-01-29T19:24:20.193Z,91.48
2019-01-29T19:26:51.195Z,91.51
2019-01-29T19:29:22.167Z,91.38
2019-01-29T19:31:53.003Z,91.26
2019-01-29T19:34:24.021Z,91.18
2019-01-29T19:36:55.028Z,90.51
2019-01-29T19:39:26.283Z,90.55
2019-01-29T19:41:57.292Z,90.69
2019-01-29T19:44:28.238Z,91.08
2019-01-29T19:46:59.017Z,90.89
2019-01-29T19:49:30.136Z,90.96
2019-01-29T19:52:01.418Z,90.94
2019-01-29T19:54:32.233Z,90.79
2019-01-29T19:57:03.080Z,90.94
2019-01-29T19:59:34.193Z,90.76
2019-01-29T20:02:05.528Z,90.50
2019-01-29T20:04:36.876Z,90.39
2019-01-29T20:07:07.819Z,90.03
2019-01-29T20:09:38.942Z,89.40
2019-01-29T20:12:09.836Z,89.60
2019-01-29T20:14:40.656Z,89.07
2019-01-29T20:17:11.423Z,88.10
2019-01-29T20:19:42.222Z,88.32
2019-01-29T20:22:13.382Z,87.92
2019-01-29T20:24:44.481Z,88.25
2019-01-29T20:27:15.333Z,87.44
2019-01-29T20:29:46.560Z,88.04
2019-01-29T20:32:17.995Z,87.88
2019-01-29T20:34:49.137Z,87.79
2019-01-29T20:37:20.552Z,87.29
2019-01-29T20:39:51.410Z,87.29
2019-01-29T20:42:22.501Z,86.84
2019-01-29T20:44:53.343Z,87.35
2019-01-29T20:47:24.146Z,86.43
2019-01-29T20:49:55.377Z,85.93
2019-01-29T20:52:26.146Z,86.59
2019-01-29T20:54:57.238Z,86.76
2019-01-29T20:57:28.022Z,85.49
2019-01-29T20:59:58.816Z,86.24
2019-01-29T21:02:29.656Z,86.52
2019-01-29T21:05:00.508Z,85.88
2019-01-29T21:07:32.537Z,85.99
2019-01-29T21:10:03.454Z,86.11
2019-01-29T21:12:34.290Z,86.13
2019-01-29T21:15:07.005Z,84.96
2019-01-29T21:17:38.093Z,84.73
2019-01-29T21:20:12.023Z,84.62
2019-01-29T21:22:43.101Z,84.42
2019-01-29T21:25:14.593Z,84.86
2019-01-29T21:27:45.502Z,84.36
2019-01-29T21:30:45.820Z,83.31
2019-01-29T21:33:16.834Z,83.36
2019-01-29T21:35:47.920Z,81.16
2019-01-29T21:38:18.758Z,82.01
2019-01-29T21:40:49.613Z,83.02
2019-01-29T21:43:20.719Z,81.30
2019-01-29T21:45:51.903Z,81.80
2019-01-29T21:48:22.735Z,83.23
2019-01-29T21:50:53.609Z,82.93
2019-01-29T21:53:24.602Z,82.95
2019-01-29T21:55:55.930Z,83.37
2019-01-29T21:58:26.792Z,84.43
2019-01-29T22:00:57.933Z,83.68
2019-01-29T22:03:28.771Z,83.14
2019-01-29T22:05:59.853Z,83.66
2019-01-29T22:08:30.732Z,84.48
2019-01-29T22:11:02.070Z,82.40
2019-01-29T22:13:32.939Z,82.80
2019-01-29T22:16:03.764Z,82.36
2019-01-29T22:18:34.528Z,82.26
2019-01-29T22:21:05.656Z,81.66
2019-01-29T22:23:36.732Z,82.90
2019-01-29T22:26:08.000Z,82.40
2019-01-29T22:28:39.367Z,82.98
2019-01-29T22:31:11.220Z,82.76
2019-01-29T22:33:42.133Z,81.95
2019-01-29T22:36:13.161Z,81.70
2019-01-29T22:38:43.948Z,81.52
2019-01-29T22:41:15.120Z,81.68
2019-01-29T22:43:46.207Z,82.32
2019-01-29T22:46:20.857Z,82.84
2019-01-29T22:48:51.861Z,82.75
2019-01-29T22:51:23.023Z,82.97
2019-01-29T22:53:54.131Z,81.77
2019-01-29T22:56:25.280Z,83.19
2019-01-29T22:58:56.286Z,82.69
2019-01-29T23:01:38.410Z,82.30
2019-01-29T23:04:17.405Z,81.68
2019-01-29T23:07:15.774Z,81.85
2019-01-29T23:09:46.626Z,81.75
2019-01-29T23:12:17.492Z,81.27
2019-01-29T23:14:48.667Z,80.24
2019-01-29T23:17:19.564Z,80.41
2019-01-29T23:19:50.375Z,79.31
2019-01-29T23:22:21.378Z,79.52
2019-01-29T23:24:52.569Z,79.87
2019-01-29T23:27:25.375Z,79.44
2019-01-29T23:29:56.159Z,80.00
2019-01-29T23:32:27.149Z,80.27
2019-01-29T23:34:58.227Z,79.54
2019-01-29T23:37:29.004Z,79.34
2019-01-29T23:39:59.772Z,79.11
2019-01-29T23:42:31.027Z,78.45
2019-01-29T23:45:02.068Z,79.01
2019-01-29T23:47:32.923Z,78.44
2019-01-29T23:50:04.523Z,78.26
2019-01-29T23:52:35.604Z,78.37
2019-01-29T23:55:07.050Z,77.32
2019-01-29T23:57:38.138Z,77.29
